createdAt,value
2018-10-09T00:00:07.318Z,95.03
2018-10-09T00:01:07.339Z,95.03
2018-10-09T00:02:07.303Z,94.93
2018-10-09T00:03:07.324Z,94.93
2018-10-09T00:04:07.274Z,94.83
2018-10-09T00:05:07.260Z,94.58
2018-10-09T00:06:07.250Z,94.52
2018-10-09T00:07:07.254Z,95.03
2018-10-09T00:08:07.229Z,94.52
2018-10-09T00:09:07.272Z,94.37
2018-10-09T00:10:07.205Z,94.83
2018-10-09T00:11:07.194Z,94.42
2018-10-09T00:12:07.184Z,94.62
2018-10-09T00:13:07.181Z,94.83
2018-10-09T00:14:07.182Z,94.73
2018-10-09T00:15:07.265Z,94.73
2018-10-09T00:16:07.141Z,94.73
2018-10-09T00:17:07.127Z,94.93
2018-10-09T00:18:07.117Z,94.73
2018-10-09T00:19:07.104Z,94.83
2018-10-09T00:20:07.099Z,94.62
2018-10-09T00:21:07.133Z,94.83
2018-10-09T00:22:07.080Z,94.31
2018-10-09T00:23:07.061Z,94.52
2018-10-09T00:24:07.051Z,94.73
2018-10-09T00:25:07.061Z,94.58
2018-10-09T00:26:07.098Z,94.83
2018-10-09T00:27:07.056Z,94.42
2018-10-09T00:28:07.017Z,94.42
2018-10-09T00:29:06.994Z,94.31
2018-10-09T00:30:06.983Z,95.03
2018-10-09T00:31:06.973Z,94.78
2018-10-09T00:32:06.964Z,94.52
2018-10-09T00:33:06.988Z,94.42
2018-10-09T00:34:06.945Z,94.83
2018-10-09T00:35:06.941Z,94.89
2018-10-09T00:36:06.922Z,94.62
2018-10-09T00:37:06.917Z,94.62
2018-10-09T00:38:06.902Z,94.83
2018-10-09T00:39:06.941Z,94.62
2018-10-09T00:40:06.881Z,94.73
2018-10-09T00:41:06.876Z,94.83
2018-10-09T00:42:06.870Z,94.62
2018-10-09T00:43:06.853Z,94.77
2018-10-09T00:44:06.838Z,94.98
2018-10-09T00:45:06.867Z,94.73
2018-10-09T00:46:06.807Z,94.67
2018-10-09T00:47:06.810Z,94.42
2018-10-09T00:48:06.784Z,94.93
2018-10-09T00:49:06.775Z,95.14
2018-10-09T00:50:06.768Z,95.08
2018-10-09T00:51:06.807Z,94.73
2018-10-09T00:52:06.740Z,94.56
2018-10-09T00:53:06.729Z,94.46
2018-10-09T00:54:06.722Z,94.77
2018-10-09T00:55:06.707Z,94.77
2018-10-09T00:56:06.717Z,94.98
2018-10-09T00:57:06.743Z,95.90
2018-10-09T00:58:06.674Z,95.49
2018-10-09T00:59:06.662Z,95.90
2018-10-09T01:00:06.650Z,96.21
2018-10-09T01:01:06.640Z,95.80
2018-10-09T01:02:06.635Z,94.98
2018-10-09T01:03:06.679Z,94.36
2018-10-09T01:04:06.606Z,94.81
2018-10-09T01:05:06.595Z,94.77
2018-10-09T01:06:06.583Z,94.20
2018-10-09T01:07:06.575Z,94.26
2018-10-09T01:08:06.566Z,94.36
2018-10-09T01:09:06.606Z,94.40
2018-10-09T01:10:06.552Z,94.81
2018-10-09T01:11:06.531Z,94.60
2018-10-09T01:12:06.518Z,94.51
2018-10-09T01:13:06.513Z,95.02
2018-10-09T01:14:06.499Z,94.71
2018-10-09T01:15:06.525Z,94.71
2018-10-09T01:16:06.487Z,94.85
2018-10-09T01:17:06.473Z,94.65
2018-10-09T01:18:06.460Z,94.65
2018-10-09T01:19:06.460Z,94.85
2018-10-09T01:20:06.441Z,94.85
2018-10-09T01:21:06.458Z,94.24
2018-10-09T01:22:06.408Z,94.55
2018-10-09T01:23:06.401Z,94.24
2018-10-09T01:24:06.387Z,94.13
2018-10-09T01:25:06.377Z,94.34
2018-10-09T01:26:06.377Z,94.34
2018-10-09T01:27:06.408Z,94.34
2018-10-09T01:28:06.359Z,94.34
2018-10-09T01:29:06.341Z,94.45
2018-10-09T01:30:06.330Z,94.55
2018-10-09T01:31:06.315Z,94.34
2018-10-09T01:32:06.334Z,94.38
2018-10-09T01:33:06.355Z,94.38
2018-10-09T01:34:06.297Z,94.18
2018-10-09T01:35:06.271Z,94.18
2018-10-09T01:36:06.260Z,93.87
2018-10-09T01:37:06.256Z,93.87
2018-10-09T01:38:06.238Z,93.35
2018-10-09T01:39:06.268Z,94.38
2018-10-09T01:40:06.211Z,94.08
2018-10-09T01:41:06.208Z,95.21
2018-10-09T01:42:06.192Z,94.59
2018-10-09T01:43:06.210Z,95.31
2018-10-09T01:44:06.182Z,95.31
2018-10-09T01:45:06.202Z,95.83
2018-10-09T01:46:06.148Z,96.03
2018-10-09T01:47:06.135Z,96.03
2018-10-09T01:48:06.121Z,96.24
2018-10-09T01:49:06.132Z,95.93
2018-10-09T01:50:06.098Z,95.93
2018-10-09T01:51:06.139Z,96.24
2018-10-09T01:52:06.078Z,95.73
2018-10-09T01:53:06.065Z,95.98
2018-10-09T01:54:06.059Z,96.18
2018-10-09T01:55:06.048Z,96.59
2018-10-09T01:56:06.045Z,96.14
2018-10-09T01:57:06.082Z,96.45
2018-10-09T01:58:06.022Z,96.39
2018-10-09T01:59:06.007Z,95.56
2018-10-09T02:00:06.016Z,95.98
2018-10-09T02:01:05.980Z,95.77
2018-10-09T02:02:05.987Z,95.77
2018-10-09T02:03:06.020Z,95.67
2018-10-09T02:04:05.959Z,95.67
2018-10-09T02:05:05.934Z,95.67
2018-10-09T02:06:05.934Z,95.56
2018-10-09T02:07:05.923Z,95.56
2018-10-09T02:08:05.916Z,95.67
2018-10-09T02:09:05.928Z,95.98
2018-10-09T02:10:05.879Z,95.87
2018-10-09T02:11:05.878Z,96.28
2018-10-09T02:12:05.868Z,95.36
2018-10-09T02:13:05.867Z,95.20
2018-10-09T02:14:05.889Z,95.15
2018-10-09T02:15:05.879Z,95.25
2018-10-09T02:16:05.827Z,95.67
2018-10-09T02:17:05.811Z,96.33
2018-10-09T02:18:05.827Z,95.92
2018-10-09T02:19:05.799Z,96.02
2018-10-09T02:20:05.792Z,95.92
2018-10-09T02:21:05.842Z,95.71
2018-10-09T02:22:05.785Z,96.12
2018-10-09T02:23:05.744Z,96.44
2018-10-09T02:24:05.737Z,95.92
2018-10-09T02:25:05.762Z,96.53
2018-10-09T02:26:05.726Z,96.23
2018-10-09T02:27:05.787Z,96.64
2018-10-09T02:28:05.729Z,96.64
2018-10-09T02:29:05.730Z,97.05
2018-10-09T02:30:05.674Z,96.74
2018-10-09T02:31:05.652Z,97.16
2018-10-09T02:32:05.639Z,97.67
2018-10-09T02:33:05.673Z,97.36
2018-10-09T02:34:05.614Z,97.21
2018-10-09T02:35:05.623Z,97.42
2018-10-09T02:36:05.605Z,97.42
2018-10-09T02:37:05.589Z,97.52
2018-10-09T02:38:05.571Z,97.42
2018-10-09T02:39:05.607Z,97.11
2018-10-09T02:40:05.564Z,97.42
2018-10-09T02:41:05.549Z,97.21
2018-10-09T02:42:05.529Z,97.31
2018-10-09T02:43:05.517Z,96.28
2018-10-09T02:44:05.506Z,96.70
2018-10-09T02:45:05.533Z,97.01
2018-10-09T02:46:05.486Z,97.11
2018-10-09T02:47:05.471Z,96.91
2018-10-09T02:48:05.462Z,97.31
2018-10-09T02:49:05.450Z,97.31
2018-10-09T02:50:05.439Z,97.48
2018-10-09T02:51:05.463Z,97.38
2018-10-09T02:52:05.425Z,97.78
2018-10-09T02:53:05.412Z,97.89
2018-10-09T02:54:05.409Z,97.89
2018-10-09T02:55:05.389Z,97.58
2018-10-09T02:56:05.379Z,97.89
2018-10-09T02:57:05.421Z,97.43
2018-10-09T02:58:05.378Z,97.74
2018-10-09T02:59:05.349Z,97.23
2018-10-09T03:00:05.347Z,96.92
2018-10-09T03:01:05.330Z,97.33
2018-10-09T03:02:05.323Z,97.18
2018-10-09T03:03:05.344Z,96.46
2018-10-09T03:04:05.297Z,97.08
2018-10-09T03:05:05.284Z,96.97
2018-10-09T03:06:05.261Z,96.46
2018-10-09T03:07:05.267Z,96.05
2018-10-09T03:08:05.255Z,96.25
2018-10-09T03:09:05.264Z,96.00
2018-10-09T03:10:05.217Z,95.95
2018-10-09T03:11:05.217Z,95.74
2018-10-09T03:12:05.199Z,95.95
2018-10-09T03:13:05.199Z,96.15
2018-10-09T03:14:05.210Z,95.84
2018-10-09T03:15:05.233Z,96.36
2018-10-09T03:16:05.161Z,96.05
2018-10-09T03:17:05.196Z,95.74
2018-10-09T03:18:05.138Z,95.53
2018-10-09T03:19:05.126Z,95.99
2018-10-09T03:20:05.113Z,96.09
2018-10-09T03:21:05.133Z,95.99
2018-10-09T03:22:05.098Z,95.58
2018-10-09T03:23:05.073Z,95.99
2018-10-09T03:24:05.062Z,96.50
2018-10-09T03:25:05.058Z,96.09
2018-10-09T03:26:05.040Z,95.93
2018-10-09T03:27:05.065Z,96.24
2018-10-09T03:28:05.021Z,96.30
2018-10-09T03:29:05.007Z,96.34
2018-10-09T03:30:05.008Z,96.03
2018-10-09T03:31:04.987Z,95.93
2018-10-09T03:32:04.974Z,95.93
2018-10-09T03:33:05.013Z,96.03
2018-10-09T03:34:04.956Z,95.83
2018-10-09T03:35:04.940Z,95.93
2018-10-09T03:36:04.936Z,95.73
2018-10-09T03:37:04.925Z,95.98
2018-10-09T03:38:05.142Z,96.14
2018-10-09T03:39:04.942Z,96.18
2018-10-09T03:40:04.890Z,96.18
2018-10-09T03:41:04.879Z,96.18
2018-10-09T03:42:04.894Z,95.56
2018-10-09T03:43:04.859Z,96.28
2018-10-09T03:44:04.847Z,96.59
2018-10-09T03:45:05.136Z,96.39
2018-10-09T03:46:04.839Z,96.18
2018-10-09T03:47:04.879Z,96.18
2018-10-09T03:48:04.801Z,96.49
2018-10-09T03:49:04.794Z,96.91
2018-10-09T03:50:04.791Z,96.49
2018-10-09T03:51:04.842Z,96.49
2018-10-09T03:52:04.880Z,96.28
2018-10-09T03:53:04.743Z,96.74
2018-10-09T03:54:04.732Z,96.23
2018-10-09T03:55:04.770Z,97.42
2018-10-09T03:56:04.901Z,97.21
2018-10-09T03:57:04.740Z,97.31
2018-10-09T03:58:04.832Z,96.80
2018-10-09T03:59:04.686Z,96.64
2018-10-09T04:00:04.685Z,96.74
2018-10-09T04:01:04.786Z,96.53
2018-10-09T04:02:04.643Z,95.92
2018-10-09T04:03:04.684Z,96.02
2018-10-09T04:04:04.621Z,96.12
2018-10-09T04:05:04.612Z,96.02
2018-10-09T04:06:04.603Z,96.02
2018-10-09T04:07:04.636Z,95.61
2018-10-09T04:08:04.589Z,96.33
2018-10-09T04:09:04.657Z,96.12
2018-10-09T04:10:04.565Z,96.44
2018-10-09T04:11:04.557Z,96.95
2018-10-09T04:12:04.546Z,96.69
2018-10-09T04:13:04.578Z,96.44
2018-10-09T04:14:04.534Z,96.27
2018-10-09T04:15:04.555Z,96.53
2018-10-09T04:16:04.503Z,96.23
2018-10-09T04:17:04.481Z,96.02
2018-10-09T04:18:04.467Z,96.37
2018-10-09T04:19:04.456Z,96.69
2018-10-09T04:20:04.552Z,97.51
2018-10-09T04:21:04.506Z,96.74
2018-10-09T04:22:04.429Z,97.41
2018-10-09T04:23:04.432Z,97.20
2018-10-09T04:24:04.437Z,97.67
2018-10-09T04:25:04.412Z,96.95
2018-10-09T04:26:04.387Z,96.89
2018-10-09T04:27:04.442Z,97.26
2018-10-09T04:28:04.365Z,97.09
2018-10-09T04:29:04.410Z,97.20
2018-10-09T04:30:04.337Z,97.16
2018-10-09T04:31:04.337Z,97.36
2018-10-09T04:32:04.330Z,97.16
2018-10-09T04:33:04.351Z,96.95
2018-10-09T04:34:04.302Z,97.20
2018-10-09T04:35:04.280Z,97.09
2018-10-09T04:36:04.269Z,97.30
2018-10-09T04:37:04.279Z,97.20
2018-10-09T04:38:04.249Z,97.20
2018-10-09T04:39:04.273Z,97.20
2018-10-09T04:40:04.226Z,97.09
2018-10-09T04:41:04.220Z,97.61
2018-10-09T04:42:04.203Z,97.20
2018-10-09T04:43:04.211Z,97.41
2018-10-09T04:44:04.207Z,96.99
2018-10-09T04:45:04.221Z,97.20
2018-10-09T04:46:11.722Z,97.09
2018-10-09T04:47:04.150Z,97.09
2018-10-09T04:48:04.148Z,96.69
2018-10-09T04:49:04.132Z,96.89
2018-10-09T04:50:12.742Z,96.89
2018-10-09T04:51:11.667Z,96.73
2018-10-09T04:52:04.094Z,96.58
2018-10-09T04:53:04.098Z,96.69
2018-10-09T04:54:04.087Z,96.83
2018-10-09T04:55:04.064Z,96.52
2018-10-09T04:56:04.090Z,95.96
2018-10-09T04:57:04.072Z,96.21
2018-10-09T04:58:04.027Z,96.11
2018-10-09T04:59:04.016Z,96.01
2018-10-09T05:00:04.010Z,95.70
2018-10-09T05:01:03.993Z,95.70
2018-10-09T05:02:04.031Z,95.80
2018-10-09T05:03:03.973Z,96.31
2018-10-09T05:04:03.996Z,95.90
2018-10-09T05:05:03.950Z,95.70
2018-10-09T05:06:03.945Z,96.01
2018-10-09T05:07:03.950Z,96.21
2018-10-09T05:08:03.968Z,95.80
2018-10-09T05:09:03.942Z,96.11
2018-10-09T05:10:03.897Z,96.11
2018-10-09T05:11:03.888Z,96.21
2018-10-09T05:12:03.878Z,96.47
2018-10-09T05:13:03.861Z,96.11
2018-10-09T05:14:03.899Z,96.42
2018-10-09T05:15:03.859Z,96.94
2018-10-09T05:16:03.840Z,97.25
2018-10-09T05:17:03.821Z,96.94
2018-10-09T05:18:03.815Z,96.83
2018-10-09T05:19:03.796Z,97.14
2018-10-09T05:20:03.831Z,97.25
2018-10-09T05:21:03.779Z,97.14
2018-10-09T05:22:03.779Z,97.25
2018-10-09T05:23:03.793Z,96.83
2018-10-09T05:24:03.748Z,97.25
2018-10-09T05:25:03.731Z,96.42
2018-10-09T05:26:03.761Z,96.94
2018-10-09T05:27:03.708Z,96.88
2018-10-09T05:28:03.705Z,96.73
2018-10-09T05:29:03.686Z,97.34
2018-10-09T05:30:03.688Z,97.45
2018-10-09T05:31:03.741Z,96.83
2018-10-09T05:32:03.707Z,96.42
2018-10-09T05:33:03.643Z,97.66
2018-10-09T05:34:03.639Z,97.14
2018-10-09T05:35:03.621Z,97.14
2018-10-09T05:36:03.622Z,97.04
2018-10-09T05:37:03.603Z,97.14
2018-10-09T05:38:03.650Z,97.34
2018-10-09T05:39:03.593Z,96.83
2018-10-09T05:40:03.575Z,97.34
2018-10-09T05:41:03.555Z,97.51
2018-10-09T05:42:03.560Z,97.34
2018-10-09T05:43:03.548Z,97.61
2018-10-09T05:44:03.574Z,97.92
2018-10-09T05:45:03.513Z,97.61
2018-10-09T05:46:03.504Z,98.07
2018-10-09T05:47:03.507Z,97.82
2018-10-09T05:48:03.498Z,97.82
2018-10-09T05:49:03.468Z,97.72
2018-10-09T05:50:03.500Z,97.72
2018-10-09T05:51:03.448Z,97.51
2018-10-09T05:52:03.436Z,97.45
2018-10-09T05:53:03.437Z,97.55
2018-10-09T05:54:03.427Z,97.45
2018-10-09T05:55:03.402Z,97.66
2018-10-09T05:56:03.429Z,97.55
2018-10-09T05:57:03.383Z,97.25
2018-10-09T05:58:03.446Z,97.55
2018-10-09T05:59:03.359Z,97.55
2018-10-09T06:00:03.363Z,97.51
2018-10-09T06:01:03.355Z,97.61
2018-10-09T06:02:03.376Z,97.41
2018-10-09T06:03:03.317Z,97.20
2018-10-09T06:04:03.306Z,97.25
2018-10-09T06:05:03.292Z,96.48
2018-10-09T06:06:03.373Z,96.79
2018-10-09T06:07:03.272Z,96.48
2018-10-09T06:08:03.303Z,96.79
2018-10-09T06:09:03.256Z,96.48
2018-10-09T06:10:03.248Z,96.89
2018-10-09T06:11:03.242Z,96.69
2018-10-09T06:12:03.216Z,97.09
2018-10-09T06:13:03.208Z,97.20
2018-10-09T06:14:03.235Z,97.61
2018-10-09T06:15:03.181Z,97.30
2018-10-09T06:16:03.243Z,96.69
2018-10-09T06:17:03.161Z,96.58
2018-10-09T06:18:03.150Z,96.79
2018-10-09T06:19:03.172Z,96.58
2018-10-09T06:20:03.166Z,96.48
2018-10-09T06:21:03.118Z,96.06
2018-10-09T06:22:03.175Z,96.58
2018-10-09T06:23:03.096Z,96.06
2018-10-09T06:24:03.084Z,96.37
2018-10-09T06:25:03.079Z,96.48
2018-10-09T06:26:03.105Z,95.61
2018-10-09T06:27:03.051Z,96.23
2018-10-09T06:28:03.171Z,95.76
2018-10-09T06:29:03.042Z,95.76
2018-10-09T06:30:03.018Z,95.81
2018-10-09T06:31:03.008Z,95.61
2018-10-09T06:32:03.032Z,95.71
2018-10-09T06:33:02.986Z,95.61
2018-10-09T06:34:03.064Z,96.02
2018-10-09T06:35:02.975Z,95.81
2018-10-09T06:36:02.966Z,95.77
2018-10-09T06:37:02.988Z,95.50
2018-10-09T06:38:02.966Z,96.18
2018-10-09T06:39:02.918Z,95.46
2018-10-09T06:40:02.911Z,96.02
2018-10-09T06:41:02.896Z,95.67
2018-10-09T06:42:02.901Z,95.98
2018-10-09T06:43:02.890Z,95.98
2018-10-09T06:44:03.037Z,96.03
2018-10-09T06:45:03.759Z,96.18
2018-10-09T06:46:02.850Z,95.87
2018-10-09T06:47:02.831Z,95.73
2018-10-09T06:48:02.834Z,96.24
2018-10-09T06:49:02.808Z,96.24
2018-10-09T06:50:02.836Z,96.14
2018-10-09T06:51:02.799Z,96.75
2018-10-09T06:52:02.776Z,96.24
2018-10-09T06:53:02.768Z,96.50
2018-10-09T06:54:02.946Z,96.45
2018-10-09T06:55:02.755Z,96.41
2018-10-09T06:56:02.782Z,96.50
2018-10-09T06:57:02.774Z,96.20
2018-10-09T06:58:02.736Z,96.05
2018-10-09T06:59:02.700Z,95.68
2018-10-09T07:00:02.710Z,95.84
2018-10-09T07:01:02.676Z,95.53
2018-10-09T07:02:02.709Z,95.53
2018-10-09T07:03:02.664Z,95.53
2018-10-09T07:04:02.646Z,96.05
2018-10-09T07:05:02.640Z,96.05
2018-10-09T07:06:02.621Z,95.74
2018-10-09T07:07:02.612Z,95.64
2018-10-09T07:08:02.645Z,95.49
2018-10-09T07:09:02.613Z,95.90
2018-10-09T07:10:02.585Z,95.80
2018-10-09T07:11:02.654Z,95.90
2018-10-09T07:12:02.560Z,95.75
2018-10-09T07:13:02.543Z,95.65
2018-10-09T07:14:02.570Z,95.96
2018-10-09T07:15:02.533Z,96.22
2018-10-09T07:16:02.511Z,96.58
2018-10-09T07:17:02.539Z,96.12
2018-10-09T07:18:02.487Z,95.61
2018-10-09T07:19:02.477Z,95.92
2018-10-09T07:20:02.513Z,96.18
2018-10-09T07:21:02.503Z,96.08
2018-10-09T07:22:02.443Z,95.72
2018-10-09T07:23:02.433Z,95.83
2018-10-09T07:24:02.421Z,96.19
2018-10-09T07:25:02.414Z,95.98
2018-10-09T07:26:02.444Z,96.40
2018-10-09T07:27:02.402Z,95.89
2018-10-09T07:28:02.469Z,95.23
2018-10-09T07:29:02.364Z,95.84
2018-10-09T07:30:02.353Z,95.64
2018-10-09T07:31:02.345Z,96.25
2018-10-09T07:32:02.378Z,96.62
2018-10-09T07:33:02.321Z,96.62
2018-10-09T07:34:02.315Z,95.69
2018-10-09T07:35:02.309Z,95.86
2018-10-09T07:36:02.302Z,95.95
2018-10-09T07:37:02.276Z,95.61
2018-10-09T07:38:02.309Z,95.91
2018-10-09T07:39:02.252Z,96.42
2018-10-09T07:40:02.242Z,95.70
2018-10-09T07:41:02.231Z,95.66
2018-10-09T07:42:02.232Z,96.17
2018-10-09T07:43:02.224Z,95.76
2018-10-09T07:44:02.432Z,95.72
2018-10-09T07:45:02.193Z,95.92
2018-10-09T07:46:02.176Z,95.82
2018-10-09T07:47:02.165Z,95.51
2018-10-09T07:48:02.160Z,95.26
2018-10-09T07:49:02.142Z,95.47
2018-10-09T07:50:02.178Z,95.78
2018-10-09T07:51:02.120Z,95.94
2018-10-09T07:52:02.111Z,95.94
2018-10-09T07:53:02.172Z,96.04
2018-10-09T07:54:02.111Z,95.63
2018-10-09T07:55:02.080Z,95.38
2018-10-09T07:56:02.116Z,95.69
2018-10-09T07:57:02.061Z,95.85
2018-10-09T07:58:02.046Z,95.75
2018-10-09T07:59:02.047Z,95.85
2018-10-09T08:00:02.029Z,95.60
2018-10-09T08:01:02.028Z,95.09
2018-10-09T08:02:02.058Z,95.09
2018-10-09T08:03:01.989Z,95.19
2018-10-09T08:04:01.979Z,94.84
2018-10-09T08:05:01.970Z,95.15
2018-10-09T08:06:01.972Z,95.00
2018-10-09T08:07:01.950Z,95.41
2018-10-09T08:08:01.988Z,94.24
2018-10-09T08:09:01.924Z,94.04
2018-10-09T08:10:01.914Z,93.18
2018-10-09T08:11:01.903Z,92.46
2018-10-09T08:12:01.893Z,92.05
2018-10-09T08:13:01.885Z,92.32
2018-10-09T08:14:01.914Z,91.91
2018-10-09T08:15:09.414Z,91.40
2018-10-09T08:16:01.848Z,91.61
2018-10-09T08:17:01.836Z,91.56
2018-10-09T08:18:01.827Z,90.95
2018-10-09T08:19:01.813Z,90.55
2018-10-09T08:20:01.842Z,89.38
2018-10-09T08:21:01.807Z,88.57
2018-10-09T08:22:01.793Z,88.67
2018-10-09T08:23:01.857Z,88.83
2018-10-09T08:24:01.758Z,87.71
2018-10-09T08:25:01.756Z,88.93
2018-10-09T08:26:01.801Z,87.98
2018-10-09T08:27:01.737Z,87.57
2018-10-09T08:28:01.805Z,87.16
2018-10-09T08:29:01.709Z,86.92
2018-10-09T08:30:01.692Z,87.23
2018-10-09T08:31:01.679Z,86.92
2018-10-09T08:32:01.705Z,87.32
2018-10-09T08:33:01.666Z,87.12
2018-10-09T08:34:01.658Z,85.86
2018-10-09T08:35:01.635Z,85.76
2018-10-09T08:36:01.636Z,85.72
2018-10-09T08:37:01.614Z,85.41
2018-10-09T08:38:01.637Z,85.41
2018-10-09T08:39:01.590Z,85.47
2018-10-09T08:40:01.611Z,85.27
2018-10-09T08:41:01.566Z,84.72
2018-10-09T08:42:01.560Z,84.52
2018-10-09T08:43:01.546Z,84.01
2018-10-09T08:44:01.575Z,83.57
2018-10-09T08:45:01.522Z,83.77
2018-10-09T08:46:01.519Z,83.53
2018-10-09T08:47:01.519Z,83.43
2018-10-09T08:48:01.488Z,82.38
2018-10-09T08:49:01.479Z,82.89
2018-10-09T08:50:01.509Z,82.48
2018-10-09T08:51:01.458Z,81.73
2018-10-09T08:52:01.489Z,80.31
2018-10-09T08:53:01.441Z,81.02
2018-10-09T08:54:01.421Z,80.18
2018-10-09T08:55:01.414Z,80.27
2018-10-09T08:56:01.446Z,80.27
2018-10-09T08:57:01.388Z,80.34
2018-10-09T08:58:01.378Z,79.93
2018-10-09T08:59:01.416Z,80.34
2018-10-09T09:00:01.363Z,78.38
2018-10-09T09:01:01.358Z,78.64
2018-10-09T09:02:01.405Z,77.87
2018-10-09T09:03:01.328Z,78.24
2018-10-09T09:04:01.318Z,76.76
2018-10-09T09:05:01.306Z,78.04
2018-10-09T09:06:01.296Z,77.13
2018-10-09T09:07:01.292Z,77.03
2018-10-09T09:08:01.316Z,77.23
2018-10-09T09:09:01.254Z,77.26
2018-10-09T09:10:01.247Z,77.47
2018-10-09T09:11:01.250Z,77.23
2018-10-09T09:12:01.220Z,75.71
2018-10-09T09:13:01.209Z,77.06
2018-10-09T09:14:01.246Z,76.42
2018-10-09T09:15:01.187Z,77.03
2018-10-09T09:16:01.182Z,77.26
2018-10-09T09:17:01.176Z,78.55
2018-10-09T09:18:01.155Z,78.85
2018-10-09T09:19:01.142Z,78.58
2018-10-09T09:20:01.177Z,79.96
2018-10-09T09:21:01.146Z,78.58
2018-10-09T09:22:01.108Z,78.58
2018-10-09T09:23:01.102Z,78.58
2018-10-09T09:24:01.093Z,78.88
2018-10-09T09:25:01.084Z,79.19
2018-10-09T09:26:01.152Z,78.99
2018-10-09T09:27:01.133Z,79.29
2018-10-09T09:28:01.048Z,79.59
2018-10-09T09:29:01.041Z,78.99
2018-10-09T09:30:01.031Z,79.13
2018-10-09T09:31:01.021Z,79.49
2018-10-09T09:32:01.060Z,80.10
2018-10-09T09:33:01.031Z,78.88
2018-10-09T09:34:00.983Z,78.99
2018-10-09T09:35:00.962Z,78.58
2018-10-09T09:36:00.962Z,79.33
2018-10-09T09:37:00.962Z,78.88
2018-10-09T09:38:00.972Z,78.88
2018-10-09T09:39:00.981Z,78.99
2018-10-09T09:40:00.919Z,78.99
2018-10-09T09:41:00.898Z,78.48
2018-10-09T09:42:00.900Z,78.68
2018-10-09T09:43:00.876Z,79.49
2018-10-09T09:44:00.908Z,78.68
2018-10-09T09:45:00.857Z,78.88
2018-10-09T09:46:00.912Z,78.88
2018-10-09T09:47:00.841Z,78.34
2018-10-09T09:48:00.833Z,78.34
2018-10-09T09:49:00.809Z,78.14
2018-10-09T09:50:00.851Z,78.91
2018-10-09T09:51:00.800Z,76.59
2018-10-09T09:52:00.818Z,76.48
2018-10-09T09:53:00.762Z,77.46
2018-10-09T09:54:00.751Z,76.35
2018-10-09T09:55:00.750Z,76.04
2018-10-09T09:56:00.780Z,75.31
2018-10-09T09:57:00.722Z,76.31
2018-10-09T09:58:00.746Z,75.81
2018-10-09T09:59:00.779Z,75.00
2018-10-09T10:00:00.683Z,75.91
2018-10-09T10:01:00.696Z,75.10
2018-10-09T10:02:00.713Z,75.20
2018-10-09T10:03:00.651Z,75.57
2018-10-09T10:04:00.638Z,74.87
2018-10-09T10:05:00.627Z,75.27
2018-10-09T10:06:00.618Z,74.52
2018-10-09T10:07:00.612Z,73.62
2018-10-09T10:08:00.630Z,73.82
2018-10-09T10:09:00.584Z,74.12
2018-10-09T10:10:00.572Z,72.78
2018-10-09T10:11:00.561Z,72.98
2018-10-09T10:12:00.548Z,72.67
2018-10-09T10:13:00.545Z,72.78
2018-10-09T10:14:00.569Z,71.67
2018-10-09T10:15:00.515Z,72.38
2018-10-09T10:16:00.505Z,71.47
2018-10-09T10:17:00.502Z,70.97
2018-10-09T10:18:00.484Z,72.04
2018-10-09T10:19:00.482Z,70.42
2018-10-09T10:20:00.517Z,70.62
2018-10-09T10:21:00.448Z,70.42
2018-10-09T10:22:00.436Z,70.22
2018-10-09T10:23:00.431Z,69.99
2018-10-09T10:24:00.413Z,69.49
2018-10-09T10:25:00.405Z,70.50
2018-10-09T10:26:00.450Z,70.16
2018-10-09T10:27:00.400Z,69.65
2018-10-09T10:28:00.374Z,69.85
2018-10-09T10:29:00.415Z,69.15
2018-10-09T10:30:00.349Z,69.12
2018-10-09T10:31:00.338Z,68.91
2018-10-09T10:32:00.372Z,67.91
2018-10-09T10:33:00.327Z,68.01
2018-10-09T10:34:00.317Z,67.81
2018-10-09T10:35:00.304Z,67.91
2018-10-09T10:36:00.280Z,68.51
2018-10-09T10:37:00.268Z,69.29
2018-10-09T10:38:00.292Z,68.08
2018-10-09T10:39:00.246Z,67.18
2018-10-09T10:40:00.234Z,66.37
2018-10-09T10:41:00.238Z,67.38
2018-10-09T10:42:00.250Z,67.27
2018-10-09T10:43:00.203Z,67.94
2018-10-09T10:44:00.238Z,66.87
2018-10-09T10:45:00.212Z,67.14
2018-10-09T10:46:00.168Z,67.44
2018-10-09T10:47:00.161Z,68.65
2018-10-09T10:48:00.164Z,66.81
2018-10-09T10:49:00.167Z,67.71
2018-10-09T10:50:00.159Z,65.70
2018-10-09T10:51:00.113Z,65.17
2018-10-09T10:52:00.102Z,66.78
2018-10-09T10:53:00.096Z,64.47
2018-10-09T10:54:00.088Z,65.77
2018-10-09T10:55:00.106Z,65.77
2018-10-09T10:56:00.097Z,65.10
2018-10-09T10:57:00.054Z,65.41
2018-10-09T10:58:00.032Z,66.51
2018-10-09T10:59:00.023Z,65.00
2018-10-09T11:00:00.037Z,65.80
2018-10-09T11:00:59.999Z,65.60
2018-10-09T11:02:00.027Z,65.80
2018-10-09T11:02:59.982Z,67.31
2018-10-09T11:03:59.968Z,65.80
2018-10-09T11:04:59.957Z,65.47
2018-10-09T11:05:59.957Z,64.47
2018-10-09T11:06:59.945Z,66.28
2018-10-09T11:08:00.290Z,65.17
2018-10-09T11:08:59.914Z,64.07
2018-10-09T11:09:59.954Z,65.07
2018-10-09T11:10:59.891Z,64.97
2018-10-09T11:12:00.870Z,64.74
2018-10-09T11:12:59.873Z,65.14
2018-10-09T11:13:59.906Z,64.43
2018-10-09T11:14:59.860Z,64.01
2018-10-09T11:15:59.848Z,64.11
2018-10-09T11:16:59.826Z,63.50
2018-10-09T11:17:59.818Z,63.40
2018-10-09T11:18:59.814Z,63.98
2018-10-09T11:19:59.862Z,63.37
2018-10-09T11:20:59.835Z,63.57
2018-10-09T11:21:59.781Z,63.37
2018-10-09T11:22:59.763Z,63.37
2018-10-09T11:23:59.751Z,62.77
2018-10-09T11:24:59.756Z,61.84
2018-10-09T11:25:59.766Z,62.64
2018-10-09T11:26:59.720Z,61.57
2018-10-09T11:27:59.706Z,62.04
2018-10-09T11:28:59.699Z,61.54
2018-10-09T11:29:59.695Z,61.94
2018-10-09T11:30:59.683Z,62.24
2018-10-09T11:31:59.710Z,61.94
2018-10-09T11:32:59.651Z,62.01
2018-10-09T11:33:59.640Z,61.01
2018-10-09T11:34:59.629Z,61.01
2018-10-09T11:35:59.624Z,61.61
2018-10-09T11:36:59.610Z,61.61
2018-10-09T11:37:59.654Z,61.68
2018-10-09T11:38:59.596Z,62.08
2018-10-09T11:39:59.574Z,61.85
2018-10-09T11:40:59.562Z,60.15
2018-10-09T11:41:59.553Z,60.45
2018-10-09T11:42:59.541Z,61.25
2018-10-09T11:43:59.589Z,60.68
2018-10-09T11:44:59.521Z,61.85
2018-10-09T11:45:59.519Z,61.15
2018-10-09T11:46:59.496Z,60.25
2018-10-09T11:47:59.485Z,61.35
2018-10-09T11:48:59.474Z,60.45
2018-10-09T11:49:59.517Z,61.35
2018-10-09T11:50:59.449Z,59.95
2018-10-09T11:51:59.445Z,60.25
2018-10-09T11:52:59.437Z,60.85
2018-10-09T11:53:59.432Z,60.55
2018-10-09T11:54:59.412Z,59.95
2018-10-09T11:55:59.451Z,60.02
2018-10-09T11:56:59.391Z,60.75
2018-10-09T11:57:59.378Z,60.55
2018-10-09T11:58:59.568Z,60.45
2018-10-09T11:59:59.355Z,60.45
2018-10-09T12:00:59.382Z,60.15
2018-10-09T12:01:59.383Z,60.15
2018-10-09T12:02:59.375Z,60.65
2018-10-09T12:03:59.325Z,60.08
2018-10-09T12:04:59.299Z,60.28
2018-10-09T12:05:59.291Z,60.58
2018-10-09T12:06:59.277Z,61.28
2018-10-09T12:07:59.319Z,60.78
2018-10-09T12:08:59.266Z,60.45
2018-10-09T12:09:59.248Z,60.02
2018-10-09T12:10:59.240Z,59.92
2018-10-09T12:11:59.267Z,59.22
2018-10-09T12:12:59.230Z,59.30
2018-10-09T12:13:59.287Z,58.29
2018-10-09T12:14:59.221Z,58.67
2018-10-09T12:15:59.275Z,58.76
2018-10-09T12:16:59.234Z,58.47
2018-10-09T12:17:59.157Z,58.37
2018-10-09T12:18:59.192Z,58.26
2018-10-09T12:19:59.175Z,58.24
2018-10-09T12:20:59.123Z,57.61
2018-10-09T12:21:59.150Z,56.68
2018-10-09T12:22:59.105Z,56.79
2018-10-09T12:23:59.095Z,56.88
2018-10-09T12:24:59.079Z,55.66
2018-10-09T12:25:59.124Z,55.63
2018-10-09T12:26:59.121Z,54.81
2018-10-09T12:27:59.050Z,54.91
2018-10-09T12:28:59.040Z,54.11
2018-10-09T12:29:59.025Z,54.91
2018-10-09T12:30:59.013Z,54.19
2018-10-09T12:31:59.043Z,54.19
2018-10-09T12:32:59.006Z,52.97
2018-10-09T12:33:59.033Z,53.56
2018-10-09T12:34:58.970Z,53.64
2018-10-09T12:35:58.961Z,52.24
2018-10-09T12:36:58.948Z,53.56
2018-10-09T12:37:58.985Z,53.27
2018-10-09T12:38:58.932Z,53.71
2018-10-09T12:39:58.928Z,54.34
2018-10-09T12:40:58.904Z,54.94
2018-10-09T12:41:58.896Z,55.26
2018-10-09T12:42:58.882Z,55.16
2018-10-09T12:43:59.044Z,56.38
2018-10-09T12:44:58.860Z,56.51
2018-10-09T12:45:58.853Z,56.01
2018-10-09T12:46:58.851Z,56.84
2018-10-09T12:47:58.840Z,56.74
2018-10-09T12:48:58.831Z,57.46
2018-10-09T12:49:58.858Z,57.97
2018-10-09T12:50:58.796Z,57.87
2018-10-09T12:51:58.783Z,58.47